Главная страница
METAR-TAF:

METAR-TAF

Аэропорты :

Oshawa Executive Airport

Ошава, Онтарио, Канада

широта: 43-55-22N, долгота: 78-53-48W, высота над уровнем моря: 140 м

Текущие метеонаблюдения

Эта сводка был подготовлена 1 час и 13 минут назад, в 12:00 UTC
Ветер 2 Узел от северо-восточный
Температура -5°C
Влажность 100%
Давление 1026 hPa
Видимость: 14.5 км
Рассеянная облачность на высоте 16000 фута
Рассеянная облачность на высоте 18000 фута

METAR: CYOO 181200Z AUTO 05002KT 9SM BKN160 BKN180 M05/M05 A3030 RMK SLP271

Время: 08:13 (13:13 UTC)


TAF: отсутствует

Метеонаблюдения и прогнозы для более 4000 аэропортов (сводки METAR и TAF).

Имеющиеся станции представлены на карте желтыми и красными точками.

Чтобы увидеть название станции, наведите на нее мышь.

Затем щелкните, чтобы увидеть метеонаблюдения и метеопрогнозы.

Управление картой: чтобы увеличить масштаб, щелкните зеленые кнопки с черным крестиком; чтобы уменьшить масштаб, щелкните зеленую кнопку с тире; для просмотра соседних карт щелкайте зеленые стрелки.


METAR-TAF: